createdAt,value
2022-08-31T00:01:52.611Z,5.30
2022-08-31T00:04:45.560Z,5.55
2022-08-31T00:07:38.477Z,5.20
2022-08-31T00:10:36.968Z,5.50
2022-08-31T00:13:30.873Z,5.07
2022-08-31T00:16:24.002Z,5.17
2022-08-31T00:19:16.968Z,4.97
2022-08-31T00:22:09.377Z,5.23
2022-08-31T00:25:01.256Z,5.63
2022-08-31T00:27:55.867Z,5.13
2022-08-31T00:30:47.778Z,5.63
2022-08-31T00:33:41.075Z,5.53
2022-08-31T00:36:33.743Z,5.43
2022-08-31T00:39:25.679Z,5.20
2022-08-31T00:42:18.495Z,5.33
2022-08-31T00:45:12.336Z,5.33
2022-08-31T00:48:04.874Z,5.93
2022-08-31T00:50:57.223Z,6.00
2022-08-31T00:53:51.382Z,6.03
2022-08-31T00:56:45.311Z,6.03
2022-08-31T00:59:38.480Z,5.90
2022-08-31T01:02:30.419Z,6.57
2022-08-31T01:05:23.888Z,6.93
2022-08-31T01:08:16.570Z,6.20
2022-08-31T01:11:10.449Z,6.80
2022-08-31T01:14:03.781Z,6.47
2022-08-31T01:16:57.825Z,6.83
2022-08-31T01:19:58.758Z,7.07
2022-08-31T01:23:00.809Z,7.43
2022-08-31T01:25:56.195Z,7.20
2022-08-31T01:28:48.448Z,6.60
2022-08-31T01:31:42.560Z,6.80
2022-08-31T01:34:35.687Z,6.30
2022-08-31T01:37:29.469Z,7.13
2022-08-31T01:40:23.114Z,6.73
2022-08-31T01:43:15.443Z,7.07
2022-08-31T01:46:09.726Z,7.90
2022-08-31T01:49:03.366Z,7.00
2022-08-31T01:51:56.913Z,7.63
2022-08-31T01:54:49.704Z,7.90
2022-08-31T01:57:42.108Z,7.70
2022-08-31T02:03:44.562Z,7.40
2022-08-31T02:06:37.692Z,6.87
2022-08-31T02:09:31.180Z,7.70
2022-08-31T02:12:23.715Z,6.97
2022-08-31T02:15:16.427Z,7.13
2022-08-31T02:18:09.105Z,7.30
2022-08-31T02:21:04.675Z,6.63
2022-08-31T02:23:57.868Z,7.67
2022-08-31T02:26:53.709Z,12.73
2022-08-31T02:29:46.418Z,11.60
2022-08-31T02:32:43.300Z,13.07
2022-08-31T02:35:36.474Z,12.67
2022-08-31T02:38:29.571Z,8.63
2022-08-31T02:41:21.453Z,8.63
2022-08-31T02:44:13.819Z,7.47
2022-08-31T02:47:05.699Z,7.13
2022-08-31T02:50:30.190Z,7.10
2022-08-31T02:53:24.833Z,7.43
2022-08-31T02:56:17.526Z,7.40
2022-08-31T02:59:09.473Z,7.43
2022-08-31T03:02:02.021Z,7.87
2022-08-31T03:04:54.517Z,8.53
2022-08-31T03:10:38.525Z,8.95
2022-08-31T03:13:30.862Z,8.63
2022-08-31T03:16:23.354Z,8.87
2022-08-31T03:19:16.080Z,8.57
2022-08-31T03:22:10.889Z,8.23
2022-08-31T03:25:03.762Z,7.97
2022-08-31T03:27:56.168Z,7.93
2022-08-31T03:30:49.166Z,7.63
2022-08-31T03:33:41.890Z,7.10
2022-08-31T03:36:34.906Z,8.10
2022-08-31T03:39:28.165Z,7.73
2022-08-31T03:42:21.567Z,8.10
2022-08-31T03:45:14.545Z,7.10
2022-08-31T03:48:12.025Z,8.47
2022-08-31T03:51:05.828Z,8.97
2022-08-31T03:53:59.386Z,10.63
2022-08-31T03:56:51.861Z,9.90
2022-08-31T03:59:45.703Z,8.80
2022-08-31T04:05:55.642Z,8.40
2022-08-31T04:09:10.781Z,8.77
2022-08-31T04:15:32.597Z,8.73
2022-08-31T04:18:24.933Z,8.37
2022-08-31T04:21:21.616Z,7.83
2022-08-31T04:24:15.698Z,8.23
2022-08-31T04:27:08.625Z,8.20
2022-08-31T04:30:02.336Z,7.73
2022-08-31T04:32:57.418Z,7.77
2022-08-31T04:35:49.619Z,8.00
2022-08-31T04:38:43.686Z,7.30
2022-08-31T04:41:39.860Z,7.43
2022-08-31T04:44:33.335Z,8.73
2022-08-31T04:47:26.759Z,9.07
2022-08-31T04:50:19.330Z,8.07
2022-08-31T04:53:32.221Z,8.50
2022-08-31T04:56:27.318Z,7.95
2022-08-31T04:59:26.432Z,8.60
2022-08-31T05:02:48.903Z,8.30
2022-08-31T05:05:46.997Z,8.07
2022-08-31T05:08:39.118Z,7.90
2022-08-31T05:11:31.278Z,8.13
2022-08-31T05:14:24.372Z,8.03
2022-08-31T05:17:24.451Z,8.27
2022-08-31T05:23:06.715Z,8.20
2022-08-31T05:25:59.568Z,7.97
2022-08-31T05:28:52.128Z,9.30
2022-08-31T05:31:49.083Z,8.17
2022-08-31T05:34:44.001Z,8.70
2022-08-31T05:37:36.535Z,8.10
2022-08-31T05:40:29.216Z,8.00
2022-08-31T05:43:21.693Z,8.03
2022-08-31T05:46:16.499Z,8.93
2022-08-31T05:49:10.882Z,8.30
2022-08-31T05:52:05.393Z,8.15
2022-08-31T05:54:57.810Z,8.10
2022-08-31T05:57:49.667Z,8.03
2022-08-31T06:00:42.773Z,8.83
2022-08-31T06:03:59.003Z,8.27
2022-08-31T06:06:52.102Z,8.33
2022-08-31T06:09:46.947Z,8.73
2022-08-31T06:12:43.019Z,8.33
2022-08-31T06:15:35.523Z,8.70
2022-08-31T06:18:34.740Z,8.47
2022-08-31T06:21:29.235Z,8.57
2022-08-31T06:24:22.385Z,8.73
2022-08-31T06:27:14.852Z,8.83
2022-08-31T06:30:09.355Z,8.73
2022-08-31T06:33:02.323Z,8.33
2022-08-31T06:36:02.957Z,7.93
2022-08-31T06:39:07.205Z,8.07
2022-08-31T06:42:03.586Z,8.83
2022-08-31T06:45:02.330Z,8.57
2022-08-31T06:48:17.643Z,8.73
2022-08-31T06:51:11.425Z,8.70
2022-08-31T06:54:27.578Z,8.10
2022-08-31T06:57:37.819Z,8.50
2022-08-31T07:00:43.450Z,8.57
2022-08-31T07:03:50.507Z,9.13
2022-08-31T07:06:45.857Z,8.77
2022-08-31T07:09:38.009Z,9.33
2022-08-31T07:12:30.891Z,8.57
2022-08-31T07:15:23.652Z,9.13
2022-08-31T07:18:15.971Z,8.00
2022-08-31T07:21:13.851Z,8.77
2022-08-31T07:24:07.458Z,8.97
2022-08-31T07:27:04.570Z,9.80
2022-08-31T07:30:21.481Z,9.03
2022-08-31T07:33:17.016Z,8.67
2022-08-31T07:36:17.044Z,8.87
2022-08-31T07:39:43.022Z,8.53
2022-08-31T07:42:38.910Z,8.47
2022-08-31T07:45:35.853Z,8.57
2022-08-31T07:48:30.666Z,8.77
2022-08-31T07:51:37.107Z,9.10
2022-08-31T07:54:41.315Z,8.33
2022-08-31T07:57:47.494Z,8.60
2022-08-31T08:00:40.336Z,8.20
2022-08-31T08:03:33.166Z,9.33
2022-08-31T08:06:44.534Z,8.25
2022-08-31T08:09:42.499Z,8.63
2022-08-31T08:12:48.418Z,9.07
2022-08-31T08:15:52.660Z,8.27
2022-08-31T08:18:44.953Z,9.03
2022-08-31T08:21:40.263Z,8.70
2022-08-31T08:24:33.627Z,8.50
2022-08-31T08:27:49.272Z,8.70
2022-08-31T08:31:08.356Z,8.40
2022-08-31T08:34:01.488Z,8.53
2022-08-31T08:36:54.752Z,8.30
2022-08-31T08:39:48.166Z,8.60
2022-08-31T08:42:45.782Z,8.10
2022-08-31T08:45:39.282Z,8.77
2022-08-31T08:48:38.349Z,8.50
2022-08-31T08:51:38.165Z,7.90
2022-08-31T08:54:38.879Z,8.30
2022-08-31T08:57:35.149Z,7.77
2022-08-31T09:00:30.306Z,8.00
2022-08-31T09:03:44.794Z,8.37
2022-08-31T09:06:48.291Z,8.73
2022-08-31T09:09:57.737Z,7.87
2022-08-31T09:12:58.410Z,8.40
2022-08-31T09:16:05.605Z,8.17
2022-08-31T09:19:04.093Z,9.13
2022-08-31T09:21:58.390Z,7.67
2022-08-31T09:24:58.707Z,8.37
2022-08-31T09:28:15.529Z,8.03
2022-08-31T09:31:08.470Z,8.53
2022-08-31T09:34:01.239Z,7.43
2022-08-31T09:36:58.119Z,7.23
2022-08-31T09:39:53.808Z,7.43
2022-08-31T09:42:48.298Z,7.33
2022-08-31T09:45:50.916Z,7.27
2022-08-31T09:48:51.846Z,6.63
2022-08-31T09:51:44.758Z,6.47
2022-08-31T09:54:54.952Z,6.70
2022-08-31T09:58:03.573Z,7.07
2022-08-31T10:00:56.596Z,6.90
2022-08-31T10:03:50.042Z,7.03
2022-08-31T10:06:47.043Z,6.97
2022-08-31T10:09:47.513Z,6.30
2022-08-31T10:12:48.518Z,6.63
2022-08-31T10:15:44.957Z,7.28
2022-08-31T10:18:45.033Z,6.57
2022-08-31T10:21:52.491Z,5.67
2022-08-31T10:24:50.427Z,7.13
2022-08-31T10:27:49.663Z,6.30
2022-08-31T10:30:47.666Z,6.67
2022-08-31T10:34:08.310Z,6.83
2022-08-31T10:37:09.405Z,6.97
2022-08-31T10:40:08.621Z,6.63
2022-08-31T10:43:11.604Z,6.17
2022-08-31T10:46:06.258Z,6.20
2022-08-31T10:49:01.205Z,6.53
2022-08-31T10:52:03.511Z,6.17
2022-08-31T10:55:05.988Z,6.40
2022-08-31T10:58:10.513Z,6.40
2022-08-31T11:01:11.437Z,7.20
2022-08-31T11:04:36.016Z,6.03
2022-08-31T11:07:37.182Z,6.37
2022-08-31T11:10:48.890Z,6.27
2022-08-31T11:14:04.474Z,6.53
2022-08-31T11:17:22.308Z,7.90
2022-08-31T11:20:25.004Z,6.70
2022-08-31T11:23:44.930Z,6.87
2022-08-31T11:26:59.028Z,6.23
2022-08-31T11:29:58.403Z,6.63
2022-08-31T11:32:57.136Z,6.20
2022-08-31T11:36:09.173Z,6.50
2022-08-31T11:39:36.246Z,6.20
2022-08-31T11:43:01.541Z,6.10
2022-08-31T11:45:54.707Z,6.00
2022-08-31T11:49:11.032Z,6.00
2022-08-31T11:52:05.763Z,6.13
2022-08-31T11:55:10.678Z,6.40
2022-08-31T11:58:27.467Z,6.63
2022-08-31T12:01:39.637Z,6.37
2022-08-31T12:05:02.982Z,5.63
2022-08-31T12:07:55.351Z,5.80
2022-08-31T12:10:59.471Z,5.93
2022-08-31T12:14:01.585Z,5.33
2022-08-31T12:17:10.007Z,5.90
2022-08-31T12:20:12.541Z,5.80
2022-08-31T12:23:39.506Z,6.30
2022-08-31T12:26:53.866Z,6.43
2022-08-31T12:29:47.021Z,7.03
2022-08-31T12:32:42.781Z,6.57
2022-08-31T12:35:36.668Z,6.43
2022-08-31T12:38:30.691Z,6.40
2022-08-31T12:41:25.542Z,6.13
2022-08-31T12:44:24.047Z,5.70
2022-08-31T12:47:29.036Z,5.50
2022-08-31T12:50:27.636Z,5.40
2022-08-31T12:53:47.508Z,4.50
2022-08-31T12:56:49.988Z,4.63
2022-08-31T13:00:00.688Z,5.27
2022-08-31T13:02:58.839Z,5.43
2022-08-31T13:06:08.520Z,5.50
2022-08-31T13:09:01.623Z,5.60
2022-08-31T13:11:57.202Z,5.63
2022-08-31T13:14:48.875Z,5.73
2022-08-31T13:17:41.900Z,5.20
2022-08-31T13:20:44.429Z,5.80
2022-08-31T13:23:39.463Z,5.77
2022-08-31T13:26:31.699Z,5.90
2022-08-31T13:29:26.697Z,5.67
2022-08-31T13:32:33.566Z,5.80
2022-08-31T13:35:37.548Z,5.83
2022-08-31T13:38:42.595Z,5.60
2022-08-31T13:41:39.150Z,5.73
2022-08-31T13:44:39.494Z,5.77
2022-08-31T13:47:47.590Z,5.70
2022-08-31T13:50:52.865Z,6.00
2022-08-31T13:53:48.656Z,5.50
2022-08-31T13:56:59.601Z,5.60
2022-08-31T14:02:43.372Z,4.97
2022-08-31T14:05:37.773Z,5.20
2022-08-31T14:08:30.533Z,5.43
2022-08-31T14:11:27.333Z,5.07
2022-08-31T14:14:25.397Z,5.23
2022-08-31T14:17:18.696Z,5.90
2022-08-31T14:20:53.358Z,5.73
2022-08-31T14:24:01.789Z,5.77
2022-08-31T14:26:54.511Z,5.67
2022-08-31T14:29:46.749Z,6.10
2022-08-31T14:32:39.552Z,5.30
2022-08-31T14:35:32.403Z,5.43
2022-08-31T14:38:25.611Z,4.63
2022-08-31T14:41:20.565Z,4.85
2022-08-31T14:44:14.392Z,5.60
2022-08-31T14:47:08.558Z,4.40
2022-08-31T14:50:05.956Z,4.80
2022-08-31T14:53:01.391Z,6.13
2022-08-31T14:55:53.629Z,5.10
2022-08-31T14:58:50.167Z,4.83
2022-08-31T15:01:45.112Z,6.23
2022-08-31T15:04:42.224Z,5.83
2022-08-31T15:07:41.870Z,5.50
2022-08-31T15:10:34.244Z,4.97
2022-08-31T15:13:34.290Z,6.07
2022-08-31T15:16:28.050Z,6.10
2022-08-31T15:19:23.476Z,6.10
2022-08-31T15:22:16.200Z,6.63
2022-08-31T15:25:12.733Z,6.53
2022-08-31T15:28:05.772Z,6.03
2022-08-31T15:30:58.292Z,6.70
2022-08-31T15:33:51.825Z,6.63
2022-08-31T15:36:44.139Z,6.43
2022-08-31T15:39:38.738Z,6.47
2022-08-31T15:42:31.590Z,6.20
2022-08-31T15:45:25.965Z,6.30
2022-08-31T15:48:48.648Z,6.37
2022-08-31T15:51:50.350Z,6.10
2022-08-31T15:54:43.822Z,6.37
2022-08-31T15:57:36.425Z,7.30
2022-08-31T16:00:32.953Z,9.33
2022-08-31T16:03:25.492Z,9.30
2022-08-31T16:06:17.769Z,7.70
2022-08-31T16:09:10.894Z,8.00
2022-08-31T16:12:04.097Z,6.70
2022-08-31T16:14:56.719Z,7.10
2022-08-31T16:17:50.147Z,7.23
2022-08-31T16:20:48.287Z,6.03
2022-08-31T16:23:40.743Z,6.40
2022-08-31T16:26:35.278Z,6.90
2022-08-31T16:29:30.072Z,6.70
2022-08-31T16:32:22.110Z,6.80
2022-08-31T16:35:16.311Z,7.40
2022-08-31T16:38:08.917Z,6.57
2022-08-31T16:41:03.827Z,7.00
2022-08-31T16:44:18.111Z,7.67
2022-08-31T16:47:10.007Z,6.00
2022-08-31T16:50:03.994Z,5.37
2022-08-31T16:52:57.542Z,5.80
2022-08-31T16:55:50.331Z,6.07
2022-08-31T16:58:51.636Z,20.10
2022-08-31T17:01:46.826Z,33.83
2022-08-31T17:04:55.252Z,25.07
2022-08-31T17:07:47.552Z,32.23
2022-08-31T17:10:39.646Z,34.40
2022-08-31T17:13:33.666Z,15.77
2022-08-31T17:16:27.278Z,8.70
2022-08-31T17:19:24.385Z,7.50
2022-08-31T17:22:25.530Z,7.30
2022-08-31T17:25:20.247Z,8.93
2022-08-31T17:28:13.384Z,6.87
2022-08-31T17:31:05.695Z,8.10
2022-08-31T17:33:58.377Z,6.75
2022-08-31T17:36:52.495Z,6.30
2022-08-31T17:39:46.039Z,9.90
2022-08-31T17:42:38.263Z,8.17
2022-08-31T17:45:30.510Z,11.57
2022-08-31T17:48:24.069Z,7.60
2022-08-31T17:51:26.710Z,6.10
2022-08-31T17:54:21.020Z,6.17
2022-08-31T17:57:14.577Z,6.37
2022-08-31T18:00:09.289Z,6.10
2022-08-31T18:03:01.941Z,6.03
2022-08-31T18:05:54.964Z,5.60
2022-08-31T18:08:47.817Z,5.27
2022-08-31T18:11:43.456Z,5.10
2022-08-31T18:14:40.083Z,5.17
2022-08-31T18:17:31.888Z,5.60
2022-08-31T18:20:24.502Z,5.80
2022-08-31T18:23:16.616Z,5.33
2022-08-31T18:26:19.555Z,5.50
2022-08-31T18:29:17.015Z,5.50
2022-08-31T18:32:11.524Z,6.13
2022-08-31T18:35:03.759Z,6.70
2022-08-31T18:37:56.435Z,6.87
2022-08-31T18:41:02.866Z,5.73
2022-08-31T18:44:13.531Z,5.93
2022-08-31T18:47:09.177Z,6.40
2022-08-31T18:50:03.809Z,6.00
2022-08-31T18:52:55.976Z,6.37
2022-08-31T18:55:48.830Z,6.57
2022-08-31T18:58:41.791Z,6.57
2022-08-31T19:01:34.322Z,6.87
2022-08-31T19:04:26.421Z,6.40
2022-08-31T19:07:19.348Z,7.30
2022-08-31T19:10:14.419Z,6.83
2022-08-31T19:13:15.442Z,6.67
2022-08-31T19:16:15.495Z,7.47
2022-08-31T19:19:09.865Z,7.07
2022-08-31T19:22:02.308Z,7.27
2022-08-31T19:24:54.339Z,7.80
2022-08-31T19:27:51.533Z,8.33
2022-08-31T19:30:48.816Z,7.90
2022-08-31T19:33:42.076Z,8.00
2022-08-31T19:36:38.023Z,8.03
2022-08-31T19:39:37.338Z,8.80
2022-08-31T19:45:44.970Z,8.53
2022-08-31T19:48:43.849Z,8.43
2022-08-31T19:51:36.939Z,8.30
2022-08-31T19:54:32.827Z,8.37
2022-08-31T19:57:24.482Z,8.93
2022-08-31T20:03:11.249Z,9.03
2022-08-31T20:06:08.009Z,8.30
2022-08-31T20:09:00.660Z,9.83
2022-08-31T20:11:53.443Z,9.90
2022-08-31T20:14:45.950Z,9.73
2022-08-31T20:17:41.988Z,8.80
2022-08-31T20:20:40.256Z,8.73
2022-08-31T20:23:32.477Z,8.13
2022-08-31T20:26:33.280Z,8.77
2022-08-31T20:29:29.592Z,9.00
2022-08-31T20:32:26.155Z,8.87
2022-08-31T20:35:19.258Z,9.03
2022-08-31T20:38:14.677Z,9.60
2022-08-31T20:41:07.531Z,8.57
2022-08-31T20:44:05.090Z,8.83
2022-08-31T20:47:16.986Z,8.50
2022-08-31T20:50:15.409Z,8.45
2022-08-31T20:53:09.116Z,8.30
2022-08-31T20:56:01.326Z,8.37
2022-08-31T20:58:53.354Z,7.67
2022-08-31T21:01:45.361Z,7.57
2022-08-31T21:04:40.886Z,8.13
2022-08-31T21:07:32.890Z,7.83
2022-08-31T21:10:36.648Z,7.70
2022-08-31T21:13:30.877Z,7.37
2022-08-31T21:16:26.363Z,7.70
2022-08-31T21:19:22.466Z,6.83
2022-08-31T21:22:17.708Z,6.90
2022-08-31T21:25:13.049Z,6.67
2022-08-31T21:28:07.508Z,7.30
2022-08-31T21:31:15.665Z,7.23
2022-08-31T21:34:12.135Z,7.47
2022-08-31T21:37:04.962Z,6.13
2022-08-31T21:39:58.124Z,6.43
2022-08-31T21:42:50.432Z,6.70
2022-08-31T21:45:42.698Z,7.37
2022-08-31T21:48:37.046Z,6.93
2022-08-31T21:51:31.898Z,7.10
2022-08-31T21:54:27.398Z,7.10
2022-08-31T21:57:21.379Z,6.87
2022-08-31T22:00:22.089Z,7.13
2022-08-31T22:03:16.372Z,6.97
2022-08-31T22:06:12.320Z,6.90
2022-08-31T22:09:07.944Z,6.57
2022-08-31T22:12:07.705Z,7.17
2022-08-31T22:14:59.943Z,7.37
2022-08-31T22:18:25.863Z,6.60
2022-08-31T22:21:05.912Z,7.00
2022-08-31T22:24:02.642Z,7.23
2022-08-31T22:26:57.252Z,6.77
2022-08-31T22:29:49.290Z,6.23
2022-08-31T22:32:41.355Z,5.90
2022-08-31T22:35:39.002Z,6.17
2022-08-31T22:38:31.344Z,6.97
2022-08-31T22:41:24.294Z,6.47
2022-08-31T22:44:19.814Z,6.47
2022-08-31T22:47:12.525Z,7.27
2022-08-31T22:50:04.767Z,12.17
2022-08-31T22:52:57.002Z,18.57
2022-08-31T22:55:49.252Z,18.50
2022-08-31T22:58:42.299Z,11.47
2022-08-31T23:01:37.763Z,7.77
2022-08-31T23:04:31.143Z,6.60
2022-08-31T23:07:24.649Z,13.30
2022-08-31T23:10:19.460Z,20.93
2022-08-31T23:13:11.085Z,13.03
2022-08-31T23:18:55.541Z,7.60
2022-08-31T23:21:56.426Z,7.10
2022-08-31T23:24:51.972Z,6.22
2022-08-31T23:27:44.146Z,7.30
2022-08-31T23:30:38.329Z,6.47
2022-08-31T23:33:31.223Z,6.33
2022-08-31T23:36:26.304Z,7.03
2022-08-31T23:39:20.035Z,6.70
2022-08-31T23:42:13.815Z,7.03
2022-08-31T23:45:07.737Z,6.73
2022-08-31T23:47:59.219Z,6.37
2022-08-31T23:50:52.266Z,6.87
2022-08-31T23:53:46.043Z,6.50
2022-08-31T23:56:41.172Z,7.50
2022-08-31T23:59:36.724Z,7.43
